sensor_id;sensor_type;location;lat;lon;timestamp;pressure;altitude;pressure_sealevel;temperature;humidity
61384;BME280;63511;49.346;8.798;2023-02-03T00:02:03;101446.34;;;9.44;75.00
61384;BME280;63511;49.346;8.798;2023-02-03T00:04:29;101435.78;;;9.29;75.97
61384;BME280;63511;49.346;8.798;2023-02-03T00:06:56;101434.97;;;9.38;76.15
61384;BME280;63511;49.346;8.798;2023-02-03T00:09:22;101442.09;;;9.34;75.88
61384;BME280;63511;49.346;8.798;2023-02-03T00:11:49;101447.44;;;9.37;75.51
61384;BME280;63511;49.346;8.798;2023-02-03T00:14:15;101440.28;;;9.42;75.52
61384;BME280;63511;49.346;8.798;2023-02-03T00:16:43;101452.75;;;9.21;76.22
61384;BME280;63511;49.346;8.798;2023-02-03T00:19:10;101457.13;;;9.32;75.37
61384;BME280;63511;49.346;8.798;2023-02-03T00:21:36;101448.53;;;9.30;75.96
61384;BME280;63511;49.346;8.798;2023-02-03T00:24:03;101455.34;;;9.31;75.63
61384;BME280;63511;49.346;8.798;2023-02-03T00:26:30;101449.41;;;9.50;75.75
61384;BME280;63511;49.346;8.798;2023-02-03T00:28:58;101445.66;;;9.36;75.97
61384;BME280;63511;49.346;8.798;2023-02-03T00:31:25;101438.69;;;9.33;75.81
61384;BME280;63511;49.346;8.798;2023-02-03T00:33:56;101437.41;;;9.28;76.29
61384;BME280;63511;49.346;8.798;2023-02-03T00:36:24;101435.63;;;9.27;76.28
61384;BME280;63511;49.346;8.798;2023-02-03T00:38:50;101442.78;;;9.23;76.63
61384;BME280;63511;49.346;8.798;2023-02-03T00:41:17;101443.56;;;9.41;76.08
61384;BME280;63511;49.346;8.798;2023-02-03T00:43:44;101440.28;;;9.42;76.02
61384;BME280;63511;49.346;8.798;2023-02-03T00:46:11;101429.25;;;9.31;76.66
61384;BME280;63511;49.346;8.798;2023-02-03T00:48:37;101428.06;;;9.27;76.89
61384;BME280;63511;49.346;8.798;2023-02-03T00:51:05;101421.84;;;9.32;76.69
61384;BME280;63511;49.346;8.798;2023-02-03T00:53:32;101419.03;;;9.29;76.56
61384;BME280;63511;49.346;8.798;2023-02-03T00:55:58;101417.13;;;9.27;77.02
61384;BME280;63511;49.346;8.798;2023-02-03T00:58:25;101411.66;;;9.41;76.02
61384;BME280;63511;49.346;8.798;2023-02-03T01:00:53;101410.53;;;9.37;76.32
61384;BME280;63511;49.346;8.798;2023-02-03T01:03:19;101408.50;;;9.44;76.42
61384;BME280;63511;49.346;8.798;2023-02-03T01:05:46;101405.13;;;9.24;77.23
61384;BME280;63511;49.346;8.798;2023-02-03T01:08:14;101409.22;;;9.32;76.95
61384;BME280;63511;49.346;8.798;2023-02-03T01:10:40;101414.16;;;9.22;76.77
61384;BME280;63511;49.346;8.798;2023-02-03T01:13:07;101419.50;;;9.25;77.71
61384;BME280;63511;49.346;8.798;2023-02-03T01:15:33;101414.78;;;9.38;76.55
61384;BME280;63511;49.346;8.798;2023-02-03T01:18:00;101432.31;;;9.37;76.91
61384;BME280;63511;49.346;8.798;2023-02-03T01:20:26;101432.09;;;9.63;76.21
61384;BME280;63511;49.346;8.798;2023-02-03T01:22:53;101432.44;;;9.38;76.60
61384;BME280;63511;49.346;8.798;2023-02-03T01:25:20;101434.28;;;9.31;77.00
61384;BME280;63511;49.346;8.798;2023-02-03T01:27:47;101432.84;;;9.24;77.31
61384;BME280;63511;49.346;8.798;2023-02-03T01:30:14;101417.84;;;9.45;76.42
61384;BME280;63511;49.346;8.798;2023-02-03T01:32:40;101410.25;;;9.16;77.60
61384;BME280;63511;49.346;8.798;2023-02-03T01:35:07;101408.88;;;9.19;77.85
61384;BME280;63511;49.346;8.798;2023-02-03T01:37:33;101389.97;;;9.43;77.47
61384;BME280;63511;49.346;8.798;2023-02-03T01:40:00;101382.69;;;9.27;77.58
61384;BME280;63511;49.346;8.798;2023-02-03T01:42:31;101364.72;;;9.52;77.61
61384;BME280;63511;49.346;8.798;2023-02-03T01:44:58;101362.81;;;9.30;77.77
61384;BME280;63511;49.346;8.798;2023-02-03T01:47:28;101357.97;;;9.42;77.41
61384;BME280;63511;49.346;8.798;2023-02-03T01:50:02;101354.00;;;9.54;77.24
61384;BME280;63511;49.346;8.798;2023-02-03T01:52:29;101358.97;;;9.44;77.53
61384;BME280;63511;49.346;8.798;2023-02-03T01:54:59;101372.03;;;9.59;76.58
61384;BME280;63511;49.346;8.798;2023-02-03T01:57:32;101376.44;;;9.51;76.70
61384;BME280;63511;49.346;8.798;2023-02-03T01:59:59;101377.84;;;9.58;76.89
61384;BME280;63511;49.346;8.798;2023-02-03T02:02:28;101374.50;;;9.67;76.55
61384;BME280;63511;49.346;8.798;2023-02-03T02:04:59;101359.31;;;9.38;77.37
61384;BME280;63511;49.346;8.798;2023-02-03T02:07:28;101324.44;;;9.43;76.93
61384;BME280;63511;49.346;8.798;2023-02-03T02:09:56;101306.84;;;9.53;77.06
61384;BME280;63511;49.346;8.798;2023-02-03T02:12:23;101351.44;;;9.25;78.25
61384;BME280;63511;49.346;8.798;2023-02-03T02:14:50;101338.13;;;9.55;76.59
61384;BME280;63511;49.346;8.798;2023-02-03T02:17:32;101347.91;;;9.42;77.61
61384;BME280;63511;49.346;8.798;2023-02-03T02:20:45;101343.41;;;9.29;78.03
61384;BME280;63511;49.346;8.798;2023-02-03T02:23:37;101334.16;;;9.20;78.54
61384;BME280;63511;49.346;8.798;2023-02-03T02:26:33;101333.25;;;9.19;78.74
61384;BME280;63511;49.346;8.798;2023-02-03T02:29:35;101343.69;;;9.32;78.31
61384;BME280;63511;49.346;8.798;2023-02-03T02:32:20;101340.72;;;9.47;78.73
61384;BME280;63511;49.346;8.798;2023-02-03T02:34:56;101340.97;;;9.21;79.08
61384;BME280;63511;49.346;8.798;2023-02-03T02:37:36;101343.50;;;9.21;78.95
61384;BME280;63511;49.346;8.798;2023-02-03T02:40:08;101325.56;;;9.36;78.63
61384;BME280;63511;49.346;8.798;2023-02-03T02:42:45;101328.75;;;9.25;78.82
61384;BME280;63511;49.346;8.798;2023-02-03T02:45:20;101325.00;;;9.30;78.78
61384;BME280;63511;49.346;8.798;2023-02-03T02:47:52;101321.56;;;9.01;79.82
61384;BME280;63511;49.346;8.798;2023-02-03T02:50:23;101309.28;;;9.14;79.99
61384;BME280;63511;49.346;8.798;2023-02-03T02:52:52;101304.09;;;9.31;79.37
61384;BME280;63511;49.346;8.798;2023-02-03T02:55:21;101311.78;;;9.33;79.94
61384;BME280;63511;49.346;8.798;2023-02-03T02:57:50;101301.94;;;9.26;79.10
61384;BME280;63511;49.346;8.798;2023-02-03T03:00:19;101313.28;;;9.31;78.92
61384;BME280;63511;49.346;8.798;2023-02-03T03:02:46;101321.41;;;9.18;79.59
61384;BME280;63511;49.346;8.798;2023-02-03T03:05:16;101317.03;;;9.07;80.25
61384;BME280;63511;49.346;8.798;2023-02-03T03:07:44;101335.84;;;9.29;79.79
61384;BME280;63511;49.346;8.798;2023-02-03T03:10:16;101339.03;;;9.37;78.44
61384;BME280;63511;49.346;8.798;2023-02-03T03:12:48;101339.53;;;9.14;79.99
61384;BME280;63511;49.346;8.798;2023-02-03T03:15:20;101346.34;;;9.15;80.62
61384;BME280;63511;49.346;8.798;2023-02-03T03:17:52;101357.91;;;9.13;82.00
61384;BME280;63511;49.346;8.798;2023-02-03T03:20:23;101350.66;;;9.16;81.63
61384;BME280;63511;49.346;8.798;2023-02-03T03:22:54;101365.28;;;9.20;81.19
61384;BME280;63511;49.346;8.798;2023-02-03T03:25:26;101367.44;;;8.88;82.01
61384;BME280;63511;49.346;8.798;2023-02-03T03:27:58;101372.56;;;8.99;82.75
61384;BME280;63511;49.346;8.798;2023-02-03T03:30:29;101372.81;;;8.83;83.46
61384;BME280;63511;49.346;8.798;2023-02-03T03:32:58;101377.63;;;8.71;84.67
61384;BME280;63511;49.346;8.798;2023-02-03T03:35:30;101379.53;;;8.74;84.95
61384;BME280;63511;49.346;8.798;2023-02-03T03:38:05;101376.81;;;8.81;84.04
61384;BME280;63511;49.346;8.798;2023-02-03T03:40:37;101377.50;;;8.70;84.26
61384;BME280;63511;49.346;8.798;2023-02-03T03:43:09;101383.84;;;8.75;84.19
61384;BME280;63511;49.346;8.798;2023-02-03T03:45:44;101374.81;;;8.68;84.03
61384;BME280;63511;49.346;8.798;2023-02-03T03:48:16;101383.13;;;8.67;84.36
61384;BME280;63511;49.346;8.798;2023-02-03T03:50:50;101381.06;;;8.63;84.73
61384;BME280;63511;49.346;8.798;2023-02-03T03:53:20;101382.03;;;8.46;85.61
61384;BME280;63511;49.346;8.798;2023-02-03T03:55:50;101375.66;;;8.50;85.72
61384;BME280;63511;49.346;8.798;2023-02-03T03:58:21;101379.53;;;8.74;85.14
61384;BME280;63511;49.346;8.798;2023-02-03T04:00:50;101374.44;;;8.82;86.23
61384;BME280;63511;49.346;8.798;2023-02-03T04:03:21;101362.94;;;8.48;86.31
61384;BME280;63511;49.346;8.798;2023-02-03T04:05:50;101367.44;;;8.61;86.32
61384;BME280;63511;49.346;8.798;2023-02-03T04:08:16;101364.44;;;8.74;85.88
61384;BME280;63511;49.346;8.798;2023-02-03T04:10:43;101370.13;;;8.63;87.19
61384;BME280;63511;49.346;8.798;2023-02-03T04:13:10;101361.97;;;8.65;87.55
61384;BME280;63511;49.346;8.798;2023-02-03T04:15:37;101355.50;;;8.50;88.21
61384;BME280;63511;49.346;8.798;2023-02-03T04:18:04;101355.41;;;8.48;88.82
61384;BME280;63511;49.346;8.798;2023-02-03T04:20:31;101359.47;;;8.57;89.03
61384;BME280;63511;49.346;8.798;2023-02-03T04:23:00;101356.56;;;8.52;87.87
61384;BME280;63511;49.346;8.798;2023-02-03T04:25:26;101363.84;;;8.49;88.83
61384;BME280;63511;49.346;8.798;2023-02-03T04:27:53;101354.13;;;8.26;89.12
61384;BME280;63511;49.346;8.798;2023-02-03T04:30:20;101367.09;;;8.48;89.00
61384;BME280;63511;49.346;8.798;2023-02-03T04:32:47;101352.91;;;8.40;88.78
61384;BME280;63511;49.346;8.798;2023-02-03T04:35:14;101347.19;;;8.32;89.52
61384;BME280;63511;49.346;8.798;2023-02-03T04:37:41;101357.94;;;8.40;90.31
61384;BME280;63511;49.346;8.798;2023-02-03T04:40:10;101338.19;;;8.53;88.94
61384;BME280;63511;49.346;8.798;2023-02-03T04:42:38;101355.25;;;8.47;88.75
61384;BME280;63511;49.346;8.798;2023-02-03T04:45:06;101371.97;;;8.46;88.70
61384;BME280;63511;49.346;8.798;2023-02-03T04:47:33;101371.19;;;8.56;88.10
61384;BME280;63511;49.346;8.798;2023-02-03T04:50:00;101362.16;;;8.58;88.27
61384;BME280;63511;49.346;8.798;2023-02-03T04:52:27;101364.94;;;8.34;88.60
61384;BME280;63511;49.346;8.798;2023-02-03T04:54:54;101365.38;;;8.38;88.43
61384;BME280;63511;49.346;8.798;2023-02-03T04:57:22;101371.25;;;8.47;88.12
61384;BME280;63511;49.346;8.798;2023-02-03T04:59:49;101359.22;;;8.53;87.97
61384;BME280;63511;49.346;8.798;2023-02-03T05:02:15;101348.84;;;8.50;87.60
61384;BME280;63511;49.346;8.798;2023-02-03T05:04:42;101359.91;;;8.61;87.05
61384;BME280;63511;49.346;8.798;2023-02-03T05:07:09;101339.56;;;8.49;87.13
61384;BME280;63511;49.346;8.798;2023-02-03T05:09:35;101330.72;;;8.63;87.07
61384;BME280;63511;49.346;8.798;2023-02-03T05:12:02;101340.00;;;8.73;86.16
61384;BME280;63511;49.346;8.798;2023-02-03T05:14:30;101370.03;;;8.52;88.04
61384;BME280;63511;49.346;8.798;2023-02-03T05:16:57;101353.28;;;8.80;86.86
61384;BME280;63511;49.346;8.798;2023-02-03T05:19:24;101346.47;;;8.52;87.30
61384;BME280;63511;49.346;8.798;2023-02-03T05:21:50;101341.38;;;8.61;86.97
61384;BME280;63511;49.346;8.798;2023-02-03T05:24:17;101336.69;;;8.55;86.79
61384;BME280;63511;49.346;8.798;2023-02-03T05:26:44;101342.97;;;8.69;87.02
61384;BME280;63511;49.346;8.798;2023-02-03T05:29:10;101352.25;;;8.78;86.82
61384;BME280;63511;49.346;8.798;2023-02-03T05:31:38;101333.72;;;8.59;86.88
61384;BME280;63511;49.346;8.798;2023-02-03T05:34:05;101330.19;;;8.76;86.32
61384;BME280;63511;49.346;8.798;2023-02-03T05:36:32;101336.72;;;8.74;86.01
61384;BME280;63511;49.346;8.798;2023-02-03T05:38:58;101340.13;;;8.74;86.78
61384;BME280;63511;49.346;8.798;2023-02-03T05:41:25;101349.41;;;8.84;86.06
61384;BME280;63511;49.346;8.798;2023-02-03T05:44:09;101349.16;;;8.53;87.09
61384;BME280;63511;49.346;8.798;2023-02-03T05:46:36;101356.22;;;8.58;88.04
61384;BME280;63511;49.346;8.798;2023-02-03T05:49:04;101354.50;;;8.75;86.92
61384;BME280;63511;49.346;8.798;2023-02-03T05:51:30;101341.34;;;8.69;86.98
61384;BME280;63511;49.346;8.798;2023-02-03T05:53:57;101356.31;;;8.68;86.99
61384;BME280;63511;49.346;8.798;2023-02-03T05:56:24;101357.50;;;8.90;86.35
61384;BME280;63511;49.346;8.798;2023-02-03T05:58:50;101352.91;;;8.67;87.71
61384;BME280;63511;49.346;8.798;2023-02-03T06:01:18;101333.16;;;8.72;86.58
61384;BME280;63511;49.346;8.798;2023-02-03T06:03:45;101328.28;;;8.73;86.66
61384;BME280;63511;49.346;8.798;2023-02-03T06:06:13;101315.38;;;8.51;87.68
61384;BME280;63511;49.346;8.798;2023-02-03T06:08:40;101305.94;;;8.68;87.59
61384;BME280;63511;49.346;8.798;2023-02-03T06:11:07;101307.75;;;8.60;88.17
61384;BME280;63511;49.346;8.798;2023-02-03T06:13:34;101323.09;;;8.53;88.88
61384;BME280;63511;49.346;8.798;2023-02-03T06:16:00;101320.97;;;8.39;89.15
61384;BME280;63511;49.346;8.798;2023-02-03T06:18:27;101319.75;;;8.63;88.79
61384;BME280;63511;49.346;8.798;2023-02-03T06:20:54;101295.88;;;8.68;88.66
61384;BME280;63511;49.346;8.798;2023-02-03T06:23:22;101295.72;;;8.47;88.46
61384;BME280;63511;49.346;8.798;2023-02-03T06:25:50;101287.78;;;8.62;88.58
61384;BME280;63511;49.346;8.798;2023-02-03T06:28:17;101299.16;;;8.85;87.81
61384;BME280;63511;49.346;8.798;2023-02-03T06:30:43;101310.66;;;8.55;88.76
61384;BME280;63511;49.346;8.798;2023-02-03T06:33:10;101310.59;;;8.36;88.98
61384;BME280;63511;49.346;8.798;2023-02-03T06:35:37;101302.53;;;8.48;88.99
61384;BME280;63511;49.346;8.798;2023-02-03T06:38:03;101286.31;;;8.36;89.10
61384;BME280;63511;49.346;8.798;2023-02-03T06:40:32;101286.69;;;8.68;89.24
61384;BME280;63511;49.346;8.798;2023-02-03T06:42:58;101300.69;;;8.29;89.44
61384;BME280;63511;49.346;8.798;2023-02-03T06:55:20;101320.47;;;8.43;89.23
61384;BME280;63511;49.346;8.798;2023-02-03T06:57:49;101326.75;;;8.57;88.91
61384;BME280;63511;49.346;8.798;2023-02-03T07:00:17;101323.09;;;8.53;88.86
61384;BME280;63511;49.346;8.798;2023-02-03T07:02:44;101332.75;;;8.40;89.83
61384;BME280;63511;49.346;8.798;2023-02-03T07:05:11;101339.06;;;8.53;88.74
61384;BME280;63511;49.346;8.798;2023-02-03T07:07:38;101339.19;;;8.19;90.06
61384;BME280;63511;49.346;8.798;2023-02-03T07:10:05;101351.34;;;8.23;90.88
61384;BME280;63511;49.346;8.798;2023-02-03T07:12:32;101361.25;;;8.22;92.21
61384;BME280;63511;49.346;8.798;2023-02-03T07:15:02;101373.66;;;8.37;91.22
61384;BME280;63511;49.346;8.798;2023-02-03T07:17:29;101370.13;;;8.27;92.16
61384;BME280;63511;49.346;8.798;2023-02-03T07:19:56;101360.38;;;8.21;92.43
61384;BME280;63511;49.346;8.798;2023-02-03T07:22:23;101385.38;;;8.28;92.17
61384;BME280;63511;49.346;8.798;2023-02-03T07:24:50;101369.69;;;8.31;92.17
61384;BME280;63511;49.346;8.798;2023-02-03T07:27:17;101368.22;;;8.16;92.47
61384;BME280;63511;49.346;8.798;2023-02-03T07:29:44;101351.75;;;8.36;91.74
61384;BME280;63511;49.346;8.798;2023-02-03T07:32:12;101364.19;;;8.26;92.36
61384;BME280;63511;49.346;8.798;2023-02-03T07:34:39;101369.94;;;8.42;92.14
61384;BME280;63511;49.346;8.798;2023-02-03T07:37:06;101374.06;;;8.42;91.27
61384;BME280;63511;49.346;8.798;2023-02-03T07:39:33;101360.44;;;8.40;91.48
61384;BME280;63511;49.346;8.798;2023-02-03T07:42:00;101366.38;;;8.68;90.77
61384;BME280;63511;49.346;8.798;2023-02-03T07:44:26;101375.56;;;8.40;91.91
61384;BME280;63511;49.346;8.798;2023-02-03T07:46:53;101371.50;;;8.50;91.92
61384;BME280;63511;49.346;8.798;2023-02-03T07:49:21;101370.34;;;8.74;90.73
61384;BME280;63511;49.346;8.798;2023-02-03T07:51:48;101380.78;;;8.60;90.62
61384;BME280;63511;49.346;8.798;2023-02-03T07:54:15;101384.81;;;8.58;91.05
61384;BME280;63511;49.346;8.798;2023-02-03T07:56:41;101395.28;;;8.63;90.90
61384;BME280;63511;49.346;8.798;2023-02-03T07:59:08;101405.97;;;8.60;90.98
61384;BME280;63511;49.346;8.798;2023-02-03T08:01:35;101399.88;;;8.67;90.49
61384;BME280;63511;49.346;8.798;2023-02-03T08:04:02;101395.25;;;8.71;90.89
61384;BME280;63511;49.346;8.798;2023-02-03T08:06:31;101388.06;;;8.84;89.63
61384;BME280;63511;49.346;8.798;2023-02-03T08:08:57;101392.47;;;8.68;90.50
61384;BME280;63511;49.346;8.798;2023-02-03T08:11:24;101398.28;;;8.59;90.96
61384;BME280;63511;49.346;8.798;2023-02-03T08:13:51;101382.94;;;8.74;90.65
61384;BME280;63511;49.346;8.798;2023-02-03T08:16:19;101397.72;;;8.80;90.35
61384;BME280;63511;49.346;8.798;2023-02-03T08:18:46;101394.59;;;8.82;89.90
61384;BME280;63511;49.346;8.798;2023-02-03T08:21:12;101407.91;;;8.90;89.51
61384;BME280;63511;49.346;8.798;2023-02-03T08:23:40;101401.63;;;8.68;90.49
61384;BME280;63511;49.346;8.798;2023-02-03T08:26:07;101388.31;;;8.69;89.76
61384;BME280;63511;49.346;8.798;2023-02-03T08:28:34;101392.59;;;8.70;90.50
61384;BME280;63511;49.346;8.798;2023-02-03T08:31:01;101400.09;;;9.06;88.43
61384;BME280;63511;49.346;8.798;2023-02-03T08:33:27;101396.44;;;8.93;89.22
61384;BME280;63511;49.346;8.798;2023-02-03T08:35:54;101399.59;;;8.91;89.20
61384;BME280;63511;49.346;8.798;2023-02-03T08:38:21;101407.75;;;9.07;88.17
61384;BME280;63511;49.346;8.798;2023-02-03T08:40:49;101399.03;;;8.85;88.73
61384;BME280;63511;49.346;8.798;2023-02-03T08:43:16;101381.06;;;8.90;88.97
61384;BME280;63511;49.346;8.798;2023-02-03T08:45:43;101391.06;;;9.18;87.56
61384;BME280;63511;49.346;8.798;2023-02-03T08:48:09;101380.03;;;9.07;88.00
61384;BME280;63511;49.346;8.798;2023-02-03T08:50:36;101378.88;;;9.04;87.75
61384;BME280;63511;49.346;8.798;2023-02-03T08:53:03;101376.03;;;9.09;88.35
61384;BME280;63511;49.346;8.798;2023-02-03T08:55:30;101374.97;;;9.16;87.82
61384;BME280;63511;49.346;8.798;2023-02-03T08:57:58;101368.59;;;9.29;86.15
61384;BME280;63511;49.346;8.798;2023-02-03T09:00:25;101380.31;;;9.29;86.61
61384;BME280;63511;49.346;8.798;2023-02-03T09:02:52;101391.00;;;9.08;87.65
61384;BME280;63511;49.346;8.798;2023-02-03T09:05:18;101380.06;;;9.26;87.14
61384;BME280;63511;49.346;8.798;2023-02-03T09:07:45;101364.88;;;9.16;86.53
61384;BME280;63511;49.346;8.798;2023-02-03T09:10:12;101367.06;;;9.21;87.35
61384;BME280;63511;49.346;8.798;2023-02-03T09:12:41;101388.03;;;9.12;87.84
61384;BME280;63511;49.346;8.798;2023-02-03T09:15:09;101390.25;;;9.09;87.50
61384;BME280;63511;49.346;8.798;2023-02-03T09:17:36;101385.44;;;9.20;87.23
61384;BME280;63511;49.346;8.798;2023-02-03T09:20:03;101390.13;;;9.07;87.00
61384;BME280;63511;49.346;8.798;2023-02-03T09:22:30;101380.38;;;9.39;87.34
61384;BME280;63511;49.346;8.798;2023-02-03T09:24:57;101380.66;;;9.23;86.89
61384;BME280;63511;49.346;8.798;2023-02-03T09:27:23;101377.06;;;9.11;88.00
61384;BME280;63511;49.346;8.798;2023-02-03T09:29:50;101370.41;;;9.12;87.91
61384;BME280;63511;49.346;8.798;2023-02-03T09:32:18;101362.22;;;9.14;87.83
61384;BME280;63511;49.346;8.798;2023-02-03T09:34:45;101370.88;;;9.26;88.03
61384;BME280;63511;49.346;8.798;2023-02-03T09:37:11;101375.38;;;9.20;87.42
61384;BME280;63511;49.346;8.798;2023-02-03T09:39:38;101376.56;;;9.34;88.37
61384;BME280;63511;49.346;8.798;2023-02-03T09:42:18;101374.88;;;9.24;87.90
61384;BME280;63511;49.346;8.798;2023-02-03T09:44:57;101364.06;;;9.25;87.50
61384;BME280;63511;49.346;8.798;2023-02-03T09:47:34;101363.63;;;9.58;87.26
61384;BME280;63511;49.346;8.798;2023-02-03T09:50:06;101367.78;;;9.02;88.56
61384;BME280;63511;49.346;8.798;2023-02-03T09:52:39;101367.41;;;9.16;88.58
61384;BME280;63511;49.346;8.798;2023-02-03T09:55:16;101361.53;;;9.25;88.47
61384;BME280;63511;49.346;8.798;2023-02-03T09:57:48;101382.44;;;9.24;87.99
61384;BME280;63511;49.346;8.798;2023-02-03T10:00:24;101373.91;;;9.14;88.73
61384;BME280;63511;49.346;8.798;2023-02-03T10:02:57;101375.38;;;9.20;89.13
61384;BME280;63511;49.346;8.798;2023-02-03T10:05:43;101367.31;;;9.24;88.46
61384;BME280;63511;49.346;8.798;2023-02-03T10:08:20;101364.44;;;9.30;88.10
61384;BME280;63511;49.346;8.798;2023-02-03T10:10:55;101347.31;;;9.55;87.38
61384;BME280;63511;49.346;8.798;2023-02-03T10:13:40;101359.34;;;9.20;88.43
61384;BME280;63511;49.346;8.798;2023-02-03T10:16:37;101351.91;;;9.40;88.78
61384;BME280;63511;49.346;8.798;2023-02-03T10:19:19;101366.50;;;9.15;89.46
61384;BME280;63511;49.346;8.798;2023-02-03T10:21:49;101375.91;;;9.26;89.62
61384;BME280;63511;49.346;8.798;2023-02-03T10:24:22;101385.84;;;9.06;90.32
61384;BME280;63511;49.346;8.798;2023-02-03T10:26:51;101373.19;;;8.96;90.02
61384;BME280;63511;49.346;8.798;2023-02-03T10:29:19;101360.31;;;9.12;89.49
61384;BME280;63511;49.346;8.798;2023-02-03T10:31:46;101370.78;;;9.35;89.10
61384;BME280;63511;49.346;8.798;2023-02-03T10:34:16;101365.50;;;9.32;88.54
61384;BME280;63511;49.346;8.798;2023-02-03T10:36:52;101367.56;;;9.27;88.91
61384;BME280;63511;49.346;8.798;2023-02-03T10:39:26;101366.28;;;9.41;89.19
61384;BME280;63511;49.346;8.798;2023-02-03T10:41:54;101357.38;;;9.26;89.02
61384;BME280;63511;49.346;8.798;2023-02-03T10:44:39;101375.41;;;9.30;89.03
61384;BME280;63511;49.346;8.798;2023-02-03T10:47:18;101367.72;;;9.29;89.47
61384;BME280;63511;49.346;8.798;2023-02-03T10:49:48;101367.31;;;9.06;90.46
61384;BME280;63511;49.346;8.798;2023-02-03T10:52:27;101358.81;;;9.32;90.32
61384;BME280;63511;49.346;8.798;2023-02-03T10:54:54;101356.16;;;9.60;88.78
61384;BME280;63511;49.346;8.798;2023-02-03T10:57:24;101345.78;;;9.47;89.00
61384;BME280;63511;49.346;8.798;2023-02-03T10:59:51;101337.38;;;9.56;88.56
61384;BME280;63511;49.346;8.798;2023-02-03T11:02:25;101336.44;;;9.46;88.81
61384;BME280;63511;49.346;8.798;2023-02-03T11:05:20;101340.34;;;9.23;88.83
61384;BME280;63511;49.346;8.798;2023-02-03T11:07:49;101329.00;;;9.47;88.74
61384;BME280;63511;49.346;8.798;2023-02-03T11:10:30;101327.44;;;9.39;89.06
61384;BME280;63511;49.346;8.798;2023-02-03T11:13:18;101321.91;;;9.43;88.64
61384;BME280;63511;49.346;8.798;2023-02-03T11:15:52;101312.06;;;9.65;88.38
61384;BME280;63511;49.346;8.798;2023-02-03T11:18:38;101310.91;;;9.32;88.14
61384;BME280;63511;49.346;8.798;2023-02-03T11:21:08;101311.38;;;9.47;88.55
61384;BME280;63511;49.346;8.798;2023-02-03T11:23:37;101308.34;;;9.51;87.81
61384;BME280;63511;49.346;8.798;2023-02-03T11:26:11;101318.28;;;9.50;87.79
61384;BME280;63511;49.346;8.798;2023-02-03T11:28:45;101311.06;;;9.44;86.94
61384;BME280;63511;49.346;8.798;2023-02-03T11:31:18;101315.81;;;9.60;86.55
61384;BME280;63511;49.346;8.798;2023-02-03T11:33:47;101312.78;;;9.64;86.08
61384;BME280;63511;49.346;8.798;2023-02-03T11:36:16;101302.00;;;9.75;85.49
61384;BME280;63511;49.346;8.798;2023-02-03T11:38:43;101304.75;;;9.68;85.74
61384;BME280;63511;49.346;8.798;2023-02-03T11:41:17;101304.09;;;9.60;86.08
61384;BME280;63511;49.346;8.798;2023-02-03T11:43:44;101318.78;;;9.46;85.29
61384;BME280;63511;49.346;8.798;2023-02-03T11:46:11;101318.34;;;9.89;84.93
61384;BME280;63511;49.346;8.798;2023-02-03T11:48:48;101319.50;;;10.02;84.00
61384;BME280;63511;49.346;8.798;2023-02-03T11:51:23;101322.00;;;9.92;83.89
61384;BME280;63511;49.346;8.798;2023-02-03T11:54:05;101340.66;;;9.84;84.61
61384;BME280;63511;49.346;8.798;2023-02-03T11:56:57;101346.75;;;9.67;84.89
61384;BME280;63511;49.346;8.798;2023-02-03T11:59:36;101341.28;;;9.92;84.06
61384;BME280;63511;49.346;8.798;2023-02-03T12:05:03;101323.69;;;9.73;85.25
61384;BME280;63511;49.346;8.798;2023-02-03T12:07:52;101314.13;;;9.50;87.97
61384;BME280;63511;49.346;8.798;2023-02-03T12:10:34;101311.81;;;9.43;89.05
61384;BME280;63511;49.346;8.798;2023-02-03T12:13:12;101283.97;;;9.42;89.92
61384;BME280;63511;49.346;8.798;2023-02-03T12:15:57;101286.56;;;9.62;89.40
61384;BME280;63511;49.346;8.798;2023-02-03T12:18:35;101278.94;;;9.42;90.85
61384;BME280;63511;49.346;8.798;2023-02-03T12:21:19;101275.94;;;9.46;90.50
61384;BME280;63511;49.346;8.798;2023-02-03T12:23:56;101269.56;;;9.30;90.74
61384;BME280;63511;49.346;8.798;2023-02-03T12:26:30;101262.00;;;9.30;90.69
61384;BME280;63511;49.346;8.798;2023-02-03T12:29:02;101248.69;;;9.42;90.96
61384;BME280;63511;49.346;8.798;2023-02-03T12:31:34;101241.47;;;9.36;90.97
61384;BME280;63511;49.346;8.798;2023-02-03T12:34:11;101242.78;;;9.22;91.58
61384;BME280;63511;49.346;8.798;2023-02-03T12:36:41;101238.09;;;9.46;90.13
61384;BME280;63511;49.346;8.798;2023-02-03T12:39:18;101222.66;;;9.61;89.35
61384;BME280;63511;49.346;8.798;2023-02-03T12:41:49;101217.50;;;9.80;89.99
61384;BME280;63511;49.346;8.798;2023-02-03T12:44:22;101229.66;;;9.94;87.70
61384;BME280;63511;49.346;8.798;2023-02-03T12:46:55;101246.44;;;9.55;86.84
61384;BME280;63511;49.346;8.798;2023-02-03T12:49:33;101248.25;;;9.66;87.65
61384;BME280;63511;49.346;8.798;2023-02-03T12:52:04;101233.75;;;9.63;87.21
61384;BME280;63511;49.346;8.798;2023-02-03T12:54:43;101229.31;;;9.61;86.92
61384;BME280;63511;49.346;8.798;2023-02-03T12:57:17;101231.31;;;9.55;87.07
61384;BME280;63511;49.346;8.798;2023-02-03T12:59:57;101227.81;;;9.63;85.54
61384;BME280;63511;49.346;8.798;2023-02-03T13:02:31;101210.72;;;9.79;85.63
61384;BME280;63511;49.346;8.798;2023-02-03T13:05:05;101212.88;;;9.95;83.97
61384;BME280;63511;49.346;8.798;2023-02-03T13:07:42;101205.53;;;9.77;84.13
61384;BME280;63511;49.346;8.798;2023-02-03T13:10:17;101198.59;;;9.95;84.14
61384;BME280;63511;49.346;8.798;2023-02-03T13:12:50;101200.00;;;9.92;83.60
61384;BME280;63511;49.346;8.798;2023-02-03T13:15:24;101168.97;;;9.93;83.92
61384;BME280;63511;49.346;8.798;2023-02-03T13:17:56;101162.16;;;10.02;83.07
61384;BME280;63511;49.346;8.798;2023-02-03T13:20:25;101146.78;;;9.99;82.89
61384;BME280;63511;49.346;8.798;2023-02-03T13:22:55;101164.06;;;10.04;82.94
61384;BME280;63511;49.346;8.798;2023-02-03T13:25:26;101164.81;;;10.13;82.54
61384;BME280;63511;49.346;8.798;2023-02-03T13:28:04;101154.88;;;10.25;82.80
61384;BME280;63511;49.346;8.798;2023-02-03T13:30:52;101165.69;;;10.14;82.11